Terminal Aerodrome Forecast
Issued by NWS

Home | Current Version | Previous Version | Text Only | Print | Product List | Glossary Off
Versions: 1 2 3 4 5 6 7 8 9 10 11 12 13 14 15 16 17 18 19 20 21

000
FTUS43 KABR 230500
TAFMBG
TAF
KMBG 230532Z 2306/2406 13008KT P6SM FEW200
     FM231400 14013KT P6SM BKN100
     FM231700 14015G22KT P6SM SCT100=

USA.gov is the U.S. government's official web portal to all federal, state and local government web resources and services.